Decoded Metar for UBBG (GYANDZHA in RUSSIA) (IATA:N/A) | Meteo·Mobile Aviation Weather
aviador You're here:

UBBG Decoded Metar

GYANDZHA in RUSSIA
Report Time2018-09-19 22:00:00
UTC Time2018-09-19 22:10:19
Flight Rules vfr VFR
Wind270° at 04 kt
W.Decomp.*RWY 30: 3.3 kt HW 2.2 kt LCW
W.Rank270° ranks 8
Current wind is below 270° avg. (6.3)
Visibility9999 m
Phenomena:N/A
Clouds:Broken 083 Hf
Expected CloudBase > 800 ft AGL from Temp-Dew spread
Ceiling8,300 ft
Temp15°C (ISA +2)
Dew Point13°C (88% RH)
AAT14.5°C
QNH1021 hPa
Density Alt1,273 ft
Elevation1,083 ft
Report Wrong Elevation
Raw Report
METAR UBBG 192200Z 27004KT 9999 BKN083 15/13 Q1021
R30/CLRD// NOSIG =

Extra information for UBBG:More info

Metar Taf Metar & Taf Last 4 Metars F.Rules Stats Wind Profile Meteogram Temp Stats Airport Information Weather charts Add Link Nearby VenuesMetar ALERT Operation Metar Decoded Social comments